Time;durP1;ratioP1;P1;durP2;ratioP2;P2;SDS_P1;SDS_P2;PMS_P1;PMS_P2;Temp;Humidity;BMP_temperature;BMP_pressure;BME280_temperature;BME280_humidity;BME280_pressure;Samples;Min_cycle;Max_cycle;Signal;HPM_P1;HPM_P2
2021/09/15 00:00:06;;;;;;;6.10;5.60;;;;;;;18.66;100.00;100628.41;4992247;28;20254;-73
2021/09/15 00:02:37;;;;;;;8.40;5.18;;;;;;;18.73;100.00;100631.47;4992074;28;20698;-72
2021/09/15 00:05:03;;;;;;;6.25;5.50;;;;;;;18.75;100.00;100629.19;4994268;28;20185;-74
2021/09/15 00:07:31;;;;;;;5.90;5.40;;;;;;;18.82;100.00;100629.53;4992224;28;20213;-73
2021/09/15 00:09:59;;;;;;;5.70;5.20;;;;;;;18.68;100.00;100631.63;4992346;28;20190;-73
2021/09/15 00:12:30;;;;;;;5.90;5.30;;;;;;;18.78;100.00;100617.56;4992003;28;20226;-73
2021/09/15 00:14:55;;;;;;;6.45;5.63;;;;;;;18.69;100.00;100623.06;4991187;28;20181;-73
2021/09/15 00:17:24;;;;;;;8.27;5.40;;;;;;;18.62;100.00;100619.97;4992017;28;20218;-73
2021/09/15 00:19:49;;;;;;;6.32;5.40;;;;;;;18.65;100.00;100613.03;4979672;28;20189;-73
2021/09/15 00:22:17;;;;;;;6.13;5.47;;;;;;;18.62;100.00;100613.69;4976211;28;20225;-73
2021/09/15 00:24:47;;;;;;;6.38;5.78;;;;;;;18.65;100.00;100618.53;4992398;28;20190;-73
2021/09/15 00:27:15;;;;;;;6.05;5.45;;;;;;;18.59;100.00;100619.84;4975970;28;20225;-73
2021/09/15 00:29:43;;;;;;;6.03;5.47;;;;;;;18.64;100.00;100611.41;4976176;28;20269;-73
2021/09/15 00:32:11;;;;;;;6.68;6.18;;;;;;;18.63;100.00;100607.06;4991943;28;20229;-73
2021/09/15 00:34:39;;;;;;;6.47;5.88;;;;;;;18.57;100.00;100605.59;4972596;28;20212;-72
2021/09/15 00:37:05;;;;;;;6.10;5.53;;;;;;;18.67;100.00;100605.25;4956301;28;20645;-72
2021/09/15 00:39:34;;;;;;;5.68;5.18;;;;;;;18.70;100.00;100599.91;4991688;28;20252;-73
2021/09/15 00:42:03;;;;;;;6.35;5.32;;;;;;;18.74;100.00;100600.06;4976167;28;20226;-73
2021/09/15 00:44:33;;;;;;;6.13;5.53;;;;;;;18.62;100.00;100594.41;4969020;28;20204;-71
2021/09/15 00:47:02;;;;;;;5.97;5.40;;;;;;;18.60;100.00;100586.47;5007316;28;20683;-73
2021/09/15 00:49:32;;;;;;;6.38;5.80;;;;;;;18.61;100.00;100579.06;4971979;28;20245;-74
2021/09/15 00:52:00;;;;;;;6.40;5.80;;;;;;;18.65;100.00;100585.53;4972170;28;20611;-73
2021/09/15 00:54:28;;;;;;;6.68;6.07;;;;;;;18.64;100.00;100583.88;4975997;28;20178;-73
2021/09/15 00:56:55;;;;;;;6.95;6.13;;;;;;;18.64;100.00;100578.38;4991482;28;20695;-70
2021/09/15 00:59:20;;;;;;;6.05;5.63;;;;;;;18.58;100.00;100579.69;4991856;28;20178;-70
2021/09/15 01:01:46;;;;;;;7.18;5.65;;;;;;;18.64;100.00;100581.13;4992142;28;20229;-72
2021/09/15 01:04:17;;;;;;;6.53;5.90;;;;;;;18.69;100.00;100591.97;4975677;28;20206;-73
2021/09/15 01:06:47;;;;;;;8.73;6.43;;;;;;;18.46;100.00;100587.81;4973246;28;20237;-72
2021/09/15 01:09:15;;;;;;;6.65;6.05;;;;;;;18.50;100.00;100583.28;4975659;28;20186;-72
2021/09/15 01:11:43;;;;;;;7.15;5.93;;;;;;;18.51;100.00;100579.38;4985457;28;20348;-72
2021/09/15 01:14:34;;;;;;;6.57;5.97;;;;;;;18.67;100.00;100580.50;4991614;28;20197;-72
2021/09/15 01:17:21;;;;;;;6.38;5.80;;;;;;;18.57;100.00;100583.56;4985390;28;20312;-72
2021/09/15 01:20:06;;;;;;;8.68;6.68;;;;;;;18.51;100.00;100576.63;4995400;28;20196;-73
2021/09/15 01:22:59;;;;;;;6.18;5.68;;;;;;;18.38;100.00;100574.88;4991499;28;20636;-73
2021/09/15 01:25:48;;;;;;;7.55;6.30;;;;;;;18.49;100.00;100581.66;4971262;28;20226;-73
2021/09/15 01:28:31;;;;;;;6.30;5.70;;;;;;;18.66;100.00;100576.94;4971919;28;20280;-74
2021/09/15 01:31:05;;;;;;;6.50;6.00;;;;;;;18.60;100.00;100572.72;4989822;28;20225;-73
2021/09/15 01:33:33;;;;;;;7.88;6.30;;;;;;;18.71;100.00;100578.69;4975464;28;20188;-73
2021/09/15 01:36:02;;;;;;;6.53;5.90;;;;;;;18.68;100.00;100580.19;4970594;28;20217;-73
2021/09/15 01:38:31;;;;;;;6.53;5.93;;;;;;;18.59;100.00;100581.34;4975129;28;20205;-72
2021/09/15 01:41:04;;;;;;;6.75;6.05;;;;;;;18.57;100.00;100587.16;4990703;28;20228;-71
2021/09/15 01:43:30;;;;;;;7.93;7.15;;;;;;;18.62;100.00;100580.66;4974512;28;20723;-72
2021/09/15 01:45:55;;;;;;;6.65;6.10;;;;;;;18.61;100.00;100573.56;4987429;28;20250;-72
2021/09/15 01:48:24;;;;;;;7.15;6.45;;;;;;;18.53;100.00;100577.09;4971176;28;20178;-72
2021/09/15 01:50:50;;;;;;;7.05;6.43;;;;;;;18.59;100.00;100570.31;4983388;28;20260;-72
2021/09/15 01:53:21;;;;;;;6.97;5.95;;;;;;;18.55;100.00;100569.34;4990632;28;20294;-72
2021/09/15 01:55:47;;;;;;;7.15;6.53;;;;;;;18.51;100.00;100573.88;5006505;28;20605;-72
2021/09/15 01:58:38;;;;;;;6.78;6.18;;;;;;;18.63;100.00;100569.31;4990420;28;20285;-72
2021/09/15 02:01:36;;;;;;;7.50;6.80;;;;;;;18.45;100.00;100585.38;4998611;28;20225;-72
2021/09/15 02:04:16;;;;;;;6.60;6.00;;;;;;;18.53;100.00;100585.38;4976133;28;20224;-72
2021/09/15 02:07:18;;;;;;;8.20;6.97;;;;;;;18.53;100.00;100588.94;4986954;28;20610;-72
2021/09/15 02:10:06;;;;;;;7.15;6.38;;;;;;;18.55;100.00;100574.84;4987404;28;20227;-73
2021/09/15 02:12:32;;;;;;;7.00;6.38;;;;;;;18.57;100.00;100567.06;4975026;28;20247;-73
2021/09/15 02:14:57;;;;;;;7.45;6.75;;;;;;;18.56;100.00;100565.47;4974389;28;20186;-73
2021/09/15 02:17:23;;;;;;;7.47;6.88;;;;;;;18.58;100.00;100569.50;4990349;28;20224;-73
2021/09/15 02:19:52;;;;;;;7.47;6.75;;;;;;;18.41;100.00;100574.22;4989878;28;20182;-73
2021/09/15 02:22:24;;;;;;;6.95;6.35;;;;;;;18.57;100.00;100567.06;4990412;28;20226;-73
2021/09/15 02:25:28;;;;;;;8.05;7.25;;;;;;;18.58;100.00;100557.69;5003324;28;20298;-73
2021/09/15 02:28:14;;;;;;;6.93;6.32;;;;;;;18.54;100.00;100567.72;4997874;28;20201;-73
2021/09/15 02:31:11;;;;;;;7.40;6.70;;;;;;;18.52;100.00;100564.50;4997476;28;20221;-73
2021/09/15 02:33:54;;;;;;;7.43;6.65;;;;;;;18.48;100.00;100558.03;4983692;28;20192;-73
2021/09/15 02:36:26;;;;;;;7.50;6.80;;;;;;;18.40;100.00;100555.28;4973705;28;20595;-72
2021/09/15 02:39:05;;;;;;;7.43;6.72;;;;;;;18.35;100.00;100559.03;4966993;28;20184;-72
2021/09/15 02:41:49;;;;;;;7.10;6.50;;;;;;;18.33;100.00;100566.78;4996759;28;20607;-72
2021/09/15 02:44:31;;;;;;;8.98;7.57;;;;;;;18.41;100.00;100556.91;4999054;28;20217;-72
2021/09/15 02:47:16;;;;;;;7.70;7.03;;;;;;;18.31;100.00;100557.22;5010270;28;20225;-72
2021/09/15 02:50:02;;;;;;;7.72;7.03;;;;;;;18.26;100.00;100541.72;5010562;28;20196;-72
2021/09/15 02:52:41;;;;;;;7.78;6.97;;;;;;;18.31;100.00;100541.53;4982104;28;20301;-72
2021/09/15 02:55:27;;;;;;;7.72;7.03;;;;;;;18.28;100.00;100553.19;4996232;28;20229;-72
2021/09/15 02:58:03;;;;;;;8.23;7.50;;;;;;;18.11;100.00;100546.09;4996057;28;20189;-73
2021/09/15 03:00:44;;;;;;;7.93;7.28;;;;;;;18.29;100.00;100541.06;4998402;28;20714;-72
2021/09/15 03:03:22;;;;;;;8.43;7.47;;;;;;;18.33;100.00;100533.78;4968056;28;20248;-72
2021/09/15 03:06:13;;;;;;;10.88;7.82;;;;;;;18.24;100.00;100535.75;5003701;28;20230;-72
2021/09/15 03:09:11;;;;;;;8.20;7.40;;;;;;;18.28;100.00;100535.91;5005511;28;20202;-72
2021/09/15 03:11:36;;;;;;;8.35;7.55;;;;;;;18.37;100.00;100534.75;4996062;28;20218;-72
2021/09/15 03:14:02;;;;;;;8.50;7.80;;;;;;;18.28;100.00;100531.19;4980427;28;20224;-72
2021/09/15 03:16:30;;;;;;;8.38;7.68;;;;;;;18.33;100.00;100532.97;4976526;28;20222;-72
2021/09/15 03:19:00;;;;;;;8.38;7.57;;;;;;;18.36;100.00;100526.81;4961378;28;20542;-72
2021/09/15 03:21:29;;;;;;;8.00;7.40;;;;;;;18.30;100.00;100523.44;4988889;28;20248;-72
2021/09/15 03:23:58;;;;;;;8.40;7.60;;;;;;;18.32;100.00;100526.66;4996494;28;20268;-73
2021/09/15 03:26:24;;;;;;;8.65;7.95;;;;;;;18.31;100.00;100519.53;4992831;28;20639;-73
2021/09/15 03:28:50;;;;;;;8.30;7.60;;;;;;;18.31;100.00;100514.03;4944606;28;20214;-73
2021/09/15 03:31:19;;;;;;;8.60;7.90;;;;;;;18.32;100.00;100515.66;4979548;28;20226;-73
2021/09/15 03:33:45;;;;;;;9.10;8.20;;;;;;;18.26;100.00;100505.97;4996370;28;20255;-73
2021/09/15 03:36:16;;;;;;;8.13;7.43;;;;;;;18.19;100.00;100499.34;4991968;28;20245;-73
2021/09/15 03:38:41;;;;;;;9.38;8.55;;;;;;;18.25;100.00;100498.03;5006982;28;20186;-73
2021/09/15 03:41:10;;;;;;;9.32;8.43;;;;;;;18.24;100.00;100497.25;4976613;28;20221;-72
2021/09/15 03:43:36;;;;;;;9.45;8.60;;;;;;;18.23;100.00;100484.59;5004723;28;20212;-73
2021/09/15 03:46:02;;;;;;;10.35;9.10;;;;;;;18.17;100.00;100485.13;4988241;28;20210;-73
2021/09/15 03:48:29;;;;;;;9.05;8.25;;;;;;;18.18;100.00;100492.22;4976666;28;20185;-73
2021/09/15 03:50:56;;;;;;;9.07;8.25;;;;;;;18.10;100.00;100489.50;4992690;28;20720;-72
2021/09/15 03:53:23;;;;;;;9.55;8.55;;;;;;;18.11;100.00;100485.59;4993141;28;20198;-72
2021/09/15 03:55:49;;;;;;;9.80;8.77;;;;;;;18.17;100.00;100488.66;4992378;28;20206;-71
2021/09/15 03:58:14;;;;;;;9.93;9.05;;;;;;;18.09;100.00;100479.63;4971261;28;20195;-72
2021/09/15 04:00:40;;;;;;;9.80;8.90;;;;;;;18.10;100.00;100478.50;4956634;28;20218;-73
2021/09/15 04:03:08;;;;;;;10.50;9.45;;;;;;;18.14;100.00;100480.25;4991555;28;20217;-71
2021/09/15 04:05:34;;;;;;;9.85;9.00;;;;;;;18.10;100.00;100473.00;4974713;28;21224;-72
2021/09/15 04:08:01;;;;;;;10.07;9.10;;;;;;;18.04;100.00;100475.06;4974864;28;20220;-72
2021/09/15 04:10:32;;;;;;;9.90;9.15;;;;;;;18.01;100.00;100472.97;4990594;28;20230;-72
2021/09/15 04:13:02;;;;;;;10.20;9.27;;;;;;;18.01;100.00;100477.66;4986497;28;20200;-72
2021/09/15 04:15:33;;;;;;;11.00;9.20;;;;;;;17.96;100.00;100475.06;4998368;28;20296;-72
2021/09/15 04:18:01;;;;;;;10.27;9.38;;;;;;;17.89;100.00;100472.00;4999438;28;20178;-73
2021/09/15 04:20:29;;;;;;;9.75;8.85;;;;;;;17.97;100.00;100471.19;4972803;28;20218;-72
2021/09/15 04:23:02;;;;;;;10.38;9.38;;;;;;;18.01;100.00;100463.91;4972413;28;20205;-72
2021/09/15 04:33:45;;;;;;;9.68;8.90;;;;;;;17.89;100.00;100461.00;4992367;28;20235;-73
2021/09/15 04:36:18;;;;;;;10.35;9.38;;;;;;;17.89;100.00;100461.00;4991760;28;20221;-72
2021/09/15 04:38:46;;;;;;;9.98;9.07;;;;;;;17.92;100.00;100454.88;4975805;28;20570;-72
2021/09/15 04:41:13;;;;;;;10.38;9.48;;;;;;;17.86;100.00;100456.97;4975730;28;20245;-72
2021/09/15 04:43:41;;;;;;;10.48;9.45;;;;;;;17.80;100.00;100451.94;4981874;28;20704;-72
2021/09/15 04:46:07;;;;;;;10.77;9.77;;;;;;;17.87;100.00;100453.06;4987958;28;20213;-72
2021/09/15 04:48:33;;;;;;;9.30;8.60;;;;;;;17.90;100.00;100451.63;4981888;28;20603;-73
2021/09/15 04:50:59;;;;;;;10.30;9.30;;;;;;;17.96;100.00;100453.09;4975580;28;20248;-72
2021/09/15 04:53:25;;;;;;;10.40;9.50;;;;;;;17.96;100.00;100444.84;4972912;28;20222;-72
2021/09/15 04:55:53;;;;;;;9.80;8.90;;;;;;;17.88;100.00;100443.72;4983057;28;20577;-73
2021/09/15 04:58:19;;;;;;;12.18;9.50;;;;;;;17.90;100.00;100435.16;4984271;28;20214;-71
2021/09/15 05:00:47;;;;;;;11.15;10.05;;;;;;;17.93;100.00;100440.81;4956138;28;20692;-73
2021/09/15 05:03:15;;;;;;;10.23;9.23;;;;;;;17.88;100.00;100443.72;4971415;28;20212;-73
2021/09/15 05:05:42;;;;;;;10.40;9.18;;;;;;;17.90;100.00;100443.41;4991406;28;20234;-73
2021/09/15 05:08:13;;;;;;;10.20;9.35;;;;;;;17.78;100.00;100437.72;4971943;28;20179;-72
2021/09/15 05:10:42;;;;;;;9.88;8.98;;;;;;;17.75;100.00;100449.38;4972004;28;20222;-72
2021/09/15 05:13:08;;;;;;;10.25;9.32;;;;;;;17.77;100.00;100447.13;4976113;28;20663;-73
2021/09/15 05:15:36;;;;;;;10.18;9.27;;;;;;;17.74;100.00;100442.25;4975281;28;20646;-71
2021/09/15 05:18:03;;;;;;;10.15;9.25;;;;;;;17.77;100.00;100441.63;4972703;28;20563;-70
2021/09/15 05:20:31;;;;;;;10.10;9.15;;;;;;;17.94;100.00;100447.09;4984666;28;20218;-70
2021/09/15 05:22:58;;;;;;;10.73;9.73;;;;;;;17.85;100.00;100449.03;4974383;28;20573;-71
2021/09/15 05:25:25;;;;;;;10.00;9.20;;;;;;;17.82;100.00;100447.78;4974564;28;20213;-71
2021/09/15 05:27:51;;;;;;;10.43;9.52;;;;;;;17.92;100.00;100450.16;4973765;28;20178;-70
2021/09/15 05:30:19;;;;;;;10.35;9.13;;;;;;;18.01;100.00;100447.44;4990255;28;20185;-73
2021/09/15 05:32:52;;;;;;;10.27;9.43;;;;;;;18.00;100.00;100440.28;4974566;28;20280;-73
2021/09/15 05:35:18;;;;;;;9.38;8.65;;;;;;;17.96;100.00;100447.59;4975842;28;20213;-72
2021/09/15 05:37:47;;;;;;;9.93;8.98;;;;;;;17.99;100.00;100449.69;4955603;28;20182;-73
2021/09/15 05:40:14;;;;;;;9.32;8.40;;;;;;;17.89;100.00;100450.00;4984141;28;20187;-73
2021/09/15 05:42:42;;;;;;;10.73;9.27;;;;;;;18.04;100.00;100444.84;4970289;28;20263;-72
2021/09/15 05:45:11;;;;;;;10.15;9.20;;;;;;;18.06;100.00;100441.72;4984894;28;20189;-73
2021/09/15 05:47:38;;;;;;;10.55;9.57;;;;;;;17.94;100.00;100441.59;5007277;28;20182;-73
2021/09/15 05:50:04;;;;;;;10.85;9.85;;;;;;;18.04;100.00;100442.09;4989546;28;20174;-74
2021/09/15 05:52:36;;;;;;;10.27;9.20;;;;;;;18.10;100.00;100442.75;4995114;28;20589;-74
2021/09/15 05:55:03;;;;;;;10.68;9.70;;;;;;;18.09;100.00;100432.88;4993257;28;20225;-74
2021/09/15 05:57:38;;;;;;;10.57;9.48;;;;;;;18.15;100.00;100438.69;4997804;28;20229;-71
2021/09/15 06:00:06;;;;;;;10.57;9.68;;;;;;;18.15;100.00;100438.69;4975914;28;20227;-71
2021/09/15 06:02:40;;;;;;;9.38;8.48;;;;;;;18.15;100.00;100440.66;4973094;28;20233;-71
2021/09/15 06:05:11;;;;;;;11.13;9.23;;;;;;;18.08;100.00;100442.25;4986130;28;20186;-71
2021/09/15 06:07:46;;;;;;;9.80;8.90;;;;;;;18.11;100.00;100439.66;4976603;28;20177;-72
2021/09/15 06:10:12;;;;;;;8.73;8.02;;;;;;;18.18;100.00;100453.72;4975309;28;20204;-71
2021/09/15 06:12:40;;;;;;;9.38;8.60;;;;;;;18.33;100.00;100447.69;4975394;28;20284;-72
2021/09/15 06:15:09;;;;;;;8.85;8.05;;;;;;;18.31;100.00;100448.00;4983855;28;20265;-72
2021/09/15 06:17:39;;;;;;;9.35;8.52;;;;;;;18.31;100.00;100452.72;4991161;28;20225;-72
2021/09/15 06:20:05;;;;;;;9.65;8.75;;;;;;;18.18;100.00;100449.03;4972590;28;20568;-73
2021/09/15 06:22:54;;;;;;;9.27;8.45;;;;;;;18.44;100.00;100446.22;4975184;28;20218;-72
2021/09/15 06:25:43;;;;;;;8.93;8.18;;;;;;;18.45;100.00;100448.63;4975227;28;20255;-73
2021/09/15 06:28:12;;;;;;;8.90;8.10;;;;;;;18.88;100.00;100441.81;4985288;28;20759;-73
2021/09/15 06:30:41;;;;;;;8.45;7.85;;;;;;;18.93;100.00;100445.19;4990414;28;20569;-73
2021/09/15 06:33:07;;;;;;;8.48;7.68;;;;;;;19.25;100.00;100441.81;4955220;28;20204;-73
2021/09/15 06:35:33;;;;;;;8.45;7.65;;;;;;;19.42;100.00;100444.44;4987356;28;20213;-73
2021/09/15 06:38:01;;;;;;;11.07;8.35;;;;;;;19.17;100.00;100452.84;4965276;28;20178;-73
2021/09/15 06:40:29;;;;;;;7.97;7.20;;;;;;;19.29;100.00;100446.28;4969557;28;20225;-73
2021/09/15 06:42:57;;;;;;;8.52;7.72;;;;;;;19.66;100.00;100444.56;4973938;28;20224;-73
2021/09/15 06:45:22;;;;;;;8.18;7.47;;;;;;;19.43;100.00;100438.59;4985917;28;20574;-73
2021/09/15 06:47:48;;;;;;;9.07;8.18;;;;;;;19.72;100.00;100444.00;5006396;28;20178;-73
2021/09/15 06:50:14;;;;;;;8.77;7.97;;;;;;;19.66;100.00;100442.59;4968114;28;20193;-72
2021/09/15 06:52:43;;;;;;;8.65;7.82;;;;;;;19.75;100.00;100435.88;5003625;28;20212;-74
2021/09/15 06:55:13;;;;;;;9.15;7.78;;;;;;;19.84;100.00;100433.88;4984782;28;20186;-73
2021/09/15 06:57:39;;;;;;;9.18;8.10;;;;;;;19.90;100.00;100431.72;4990761;28;20196;-72
2021/09/15 07:00:08;;;;;;;8.48;7.78;;;;;;;19.89;100.00;100436.44;5001039;28;20181;-72
2021/09/15 07:02:34;;;;;;;9.00;8.20;;;;;;;19.99;100.00;100430.50;4974507;28;20309;-72
2021/09/15 07:05:02;;;;;;;8.90;8.10;;;;;;;20.02;100.00;100431.75;5003700;28;20272;-72
2021/09/15 07:07:28;;;;;;;9.50;8.32;;;;;;;20.18;100.00;100428.03;4986171;28;20726;-73
2021/09/15 07:09:54;;;;;;;8.68;7.82;;;;;;;20.30;100.00;100425.31;4973386;28;20194;-73
2021/09/15 07:12:22;;;;;;;8.07;7.28;;;;;;;20.19;100.00;100433.19;4977270;28;20240;-73
2021/09/15 07:14:48;;;;;;;8.75;7.80;;;;;;;20.46;100.00;100430.63;4975967;28;20190;-73
2021/09/15 07:17:14;;;;;;;8.77;7.90;;;;;;;20.57;100.00;100437.31;5005250;28;20206;-72
2021/09/15 07:19:41;;;;;;;8.63;7.82;;;;;;;20.56;100.00;100441.22;4994362;28;20222;-72
2021/09/15 07:22:07;;;;;;;8.35;7.65;;;;;;;20.40;100.00;100446.94;4982878;28;20220;-72
2021/09/15 07:24:33;;;;;;;8.25;7.45;;;;;;;20.40;100.00;100438.66;5013152;28;20209;-72
2021/09/15 07:27:01;;;;;;;8.05;7.30;;;;;;;20.43;100.00;100435.22;4992349;28;20720;-73
2021/09/15 07:29:30;;;;;;;8.38;7.70;;;;;;;20.72;100.00;100436.69;4974234;28;20688;-72
2021/09/15 07:32:01;;;;;;;8.27;7.53;;;;;;;20.74;100.00;100436.34;4991200;28;20221;-72
2021/09/15 07:34:27;;;;;;;10.95;7.60;;;;;;;20.72;100.00;100444.97;4993861;28;20537;-72
2021/09/15 07:36:53;;;;;;;8.52;7.72;;;;;;;20.76;100.00;100439.56;4989185;28;20232;-73
2021/09/15 07:39:21;;;;;;;8.25;7.55;;;;;;;20.78;100.00;100446.34;4976951;28;20240;-72
2021/09/15 07:41:48;;;;;;;8.63;7.82;;;;;;;20.60;100.00;100444.94;4993019;28;20287;-72
2021/09/15 07:44:13;;;;;;;8.18;7.55;;;;;;;20.93;100.00;100440.13;4997042;28;20707;-73
2021/09/15 07:46:39;;;;;;;7.93;7.13;;;;;;;20.94;100.00;100441.75;4990536;28;20217;-73
2021/09/15 07:49:09;;;;;;;8.02;7.32;;;;;;;20.85;100.00;100441.06;4992604;28;20605;-73
2021/09/15 07:51:35;;;;;;;8.60;7.75;;;;;;;21.06;100.00;100444.50;4980085;28;20280;-72
2021/09/15 07:54:01;;;;;;;9.10;7.93;;;;;;;21.06;100.00;100450.03;4975053;28;20182;-72
2021/09/15 07:56:31;;;;;;;9.75;7.95;;;;;;;21.13;100.00;100453.03;5007566;28;20688;-72
2021/09/15 07:58:58;;;;;;;8.20;7.40;;;;;;;20.90;100.00;100451.88;4978075;28;20240;-73
2021/09/15 08:01:25;;;;;;;8.52;7.78;;;;;;;20.88;100.00;100449.47;4990123;28;20324;-72
2021/09/15 08:03:53;;;;;;;8.88;7.97;;;;;;;21.07;100.00;100448.88;4958923;28;20210;-72
2021/09/15 08:06:19;;;;;;;8.27;7.47;;;;;;;20.97;100.00;100452.91;4990002;28;20254;-73
2021/09/15 08:08:45;;;;;;;8.35;7.55;;;;;;;21.17;100.00;100453.94;4992347;28;20221;-73
2021/09/15 08:11:11;;;;;;;8.40;7.60;;;;;;;21.14;100.00;100452.69;4992327;28;20202;-72
2021/09/15 08:13:36;;;;;;;9.10;7.38;;;;;;;21.42;100.00;100448.88;4989595;28;20207;-72
2021/09/15 08:16:04;;;;;;;8.70;8.00;;;;;;;21.33;100.00;100448.16;4981378;28;20221;-73
2021/09/15 08:18:35;;;;;;;9.20;8.43;;;;;;;21.52;100.00;100448.41;5003535;28;20191;-72
2021/09/15 08:21:04;;;;;;;9.13;7.70;;;;;;;21.72;100.00;100450.16;4990985;28;20218;-72
2021/09/15 08:23:30;;;;;;;8.10;7.40;;;;;;;22.13;100.00;100445.88;4993982;28;20222;-72
2021/09/15 08:26:00;;;;;;;7.72;7.03;;;;;;;22.32;100.00;100440.47;4988815;28;20288;-73
2021/09/15 08:28:28;;;;;;;7.70;6.95;;;;;;;22.40;100.00;100439.53;5002318;28;20220;-73
2021/09/15 08:30:56;;;;;;;10.10;7.20;;;;;;;22.14;100.00;100433.66;4987937;28;20210;-73
2021/09/15 08:33:24;;;;;;;7.75;7.00;;;;;;;22.29;100.00;100435.69;4988387;28;20233;-73
2021/09/15 08:35:50;;;;;;;8.75;7.95;;;;;;;22.37;100.00;100436.66;4974781;28;20577;-73
2021/09/15 08:38:15;;;;;;;8.75;7.93;;;;;;;22.33;100.00;100422.72;4992200;28;20201;-72
2021/09/15 08:40:48;;;;;;;8.95;8.07;;;;;;;22.15;100.00;100424.19;4969554;28;20288;-73
2021/09/15 08:43:16;;;;;;;8.68;7.53;;;;;;;21.83;100.00;100438.28;4973706;28;20209;-73
2021/09/15 08:45:41;;;;;;;9.32;7.88;;;;;;;21.18;100.00;100433.44;5007061;28;20272;-72
2021/09/15 08:48:13;;;;;;;9.23;8.35;;;;;;;21.16;100.00;100433.00;4985709;28;20194;-72
2021/09/15 08:50:45;;;;;;;8.63;7.80;;;;;;;21.10;100.00;100435.19;4989877;28;20225;-73
2021/09/15 08:53:11;;;;;;;8.50;7.78;;;;;;;21.20;100.00;100433.91;4991970;28;20205;-73
2021/09/15 08:55:36;;;;;;;8.75;7.60;;;;;;;21.46;100.00;100429.63;4974951;28;20213;-72
2021/09/15 08:58:02;;;;;;;8.00;7.22;;;;;;;21.62;100.00;100426.56;4991499;28;20209;-73
2021/09/15 09:00:27;;;;;;;9.90;8.05;;;;;;;21.63;100.00;100425.44;4975371;28;20229;-73
2021/09/15 09:02:53;;;;;;;9.48;8.57;;;;;;;21.71;100.00;100421.72;4991566;28;20226;-73
2021/09/15 09:05:20;;;;;;;8.38;7.60;;;;;;;21.96;100.00;100422.41;4975442;28;20615;-73
2021/09/15 09:07:46;;;;;;;9.13;8.32;;;;;;;21.99;100.00;100419.75;4991706;28;20236;-73
2021/09/15 09:10:15;;;;;;;8.57;7.80;;;;;;;21.99;100.00;100421.72;4991103;28;20189;-73
2021/09/15 09:12:44;;;;;;;8.52;7.30;;;;;;;22.00;100.00;100426.13;4971969;28;20273;-73
2021/09/15 09:15:26;;;;;;;8.90;8.02;;;;;;;21.89;100.00;100413.94;4971629;28;20182;-73
2021/09/15 09:18:14;;;;;;;9.70;8.65;;;;;;;21.93;100.00;100414.84;4984615;28;20243;-73
2021/09/15 09:20:42;;;;;;;8.68;7.88;;;;;;;21.98;100.00;100411.78;4974939;28;20217;-73
2021/09/15 09:23:18;;;;;;;8.02;7.35;;;;;;;21.73;100.00;100415.84;4988524;28;20253;-73
2021/09/15 09:25:57;;;;;;;8.88;8.02;;;;;;;21.71;100.00;100413.41;4955621;28;20222;-72
2021/09/15 09:28:25;;;;;;;8.60;7.80;;;;;;;22.06;100.00;100404.16;4993551;28;20192;-73
2021/09/15 09:30:54;;;;;;;7.80;7.10;;;;;;;21.94;100.00;100403.44;4992137;28;20240;-74
2021/09/15 09:33:20;;;;;;;8.63;7.90;;;;;;;22.04;100.00;100400.94;4966318;28;20201;-73
2021/09/15 09:35:48;;;;;;;8.95;8.15;;;;;;;22.05;100.00;100410.03;4990660;28;20580;-73
2021/09/15 09:38:17;;;;;;;10.02;9.13;;;;;;;21.91;100.00;100408.84;4971449;28;20617;-72
2021/09/15 09:41:16;;;;;;;8.57;7.93;;;;;;;21.82;100.00;100397.13;4971390;28;20241;-73
2021/09/15 09:43:51;;;;;;;8.50;7.70;;;;;;;21.83;100.00;100398.72;4981473;28;20309;-73
2021/09/15 09:46:21;;;;;;;8.85;7.80;;;;;;;21.95;100.00;100401.47;4974735;28;20645;-72
2021/09/15 09:48:58;;;;;;;8.13;7.40;;;;;;;21.92;100.00;100391.88;4988325;28;20190;-73
2021/09/15 09:51:35;;;;;;;9.00;7.93;;;;;;;21.98;100.00;100395.19;4970639;28;20237;-73
2021/09/15 09:54:30;;;;;;;9.05;8.05;;;;;;;22.10;100.00;100398.72;4991058;28;20189;-73
2021/09/15 09:56:58;;;;;;;8.20;7.50;;;;;;;21.84;100.00;100403.13;4990446;28;20232;-73
2021/09/15 09:59:29;;;;;;;8.23;7.47;;;;;;;22.09;100.00;100397.13;4971272;28;20182;-73
2021/09/15 10:01:59;;;;;;;8.88;7.95;;;;;;;21.89;100.00;100397.34;4970701;28;20226;-74
2021/09/15 10:04:25;;;;;;;8.82;8.05;;;;;;;21.62;100.00;100392.59;4987979;28;20217;-73
2021/09/15 10:06:53;;;;;;;9.07;8.30;;;;;;;21.69;100.00;100392.81;4989953;28;20225;-74
2021/09/15 10:09:19;;;;;;;9.02;8.23;;;;;;;21.62;100.00;100387.06;4970897;28;20194;-73
2021/09/15 10:11:46;;;;;;;9.68;8.77;;;;;;;21.63;100.00;100391.47;4970733;28;20230;-73
2021/09/15 10:14:16;;;;;;;9.43;8.52;;;;;;;21.46;100.00;100388.94;4978555;28;20265;-72
2021/09/15 10:16:56;;;;;;;9.15;8.25;;;;;;;21.59;100.00;100390.53;4989984;28;20245;-73
2021/09/15 10:19:27;;;;;;;10.00;9.00;;;;;;;21.58;100.00;100391.69;4981556;28;20659;-73
2021/09/15 10:21:59;;;;;;;10.90;9.80;;;;;;;21.52;100.00;100387.56;4990013;28;20284;-73
2021/09/15 10:24:49;;;;;;;10.15;9.25;;;;;;;21.67;100.00;100378.53;4990432;28;20649;-74
2021/09/15 10:27:16;;;;;;;10.45;9.48;;;;;;;21.33;100.00;100373.53;4991169;28;20292;-73
2021/09/15 10:29:41;;;;;;;10.52;9.57;;;;;;;21.40;100.00;100375.72;5006442;28;20174;-73
2021/09/15 10:32:09;;;;;;;11.48;10.38;;;;;;;21.43;100.00;100375.84;4989993;28;20718;-72
2021/09/15 10:34:38;;;;;;;11.40;10.30;;;;;;;21.57;100.00;100367.94;5000863;28;20190;-73
2021/09/15 10:37:12;;;;;;;11.25;10.18;;;;;;;21.46;100.00;100364.06;4990448;28;20750;-73
2021/09/15 10:40:14;;;;;;;13.00;11.25;;;;;;;21.52;100.00;100356.34;4999990;28;20574;-73
2021/09/15 10:42:47;;;;;;;11.18;10.07;;;;;;;21.53;100.00;100355.19;4974033;28;20351;-73
2021/09/15 10:45:33;;;;;;;14.05;11.32;;;;;;;21.54;100.00;100351.25;4975422;28;20181;-73
2021/09/15 10:48:04;;;;;;;12.48;11.38;;;;;;;21.51;100.00;100344.47;4987325;28;20192;-73
2021/09/15 10:50:33;;;;;;;12.30;11.13;;;;;;;21.46;100.00;100349.44;4993477;28;20228;-73
2021/09/15 10:53:07;;;;;;;12.52;11.43;;;;;;;21.52;100.00;100348.88;4995592;28;20555;-73
2021/09/15 10:55:46;;;;;;;13.35;11.95;;;;;;;21.49;100.00;100349.56;4993746;28;20224;-73
2021/09/15 10:58:18;;;;;;;12.88;11.68;;;;;;;21.34;100.00;100347.50;4994275;28;20296;-72
2021/09/15 11:00:48;;;;;;;13.90;12.70;;;;;;;21.26;100.00;100345.69;4993027;28;20209;-73
2021/09/15 11:03:32;;;;;;;14.13;12.93;;;;;;;21.38;100.00;100359.47;4995385;28;20213;-73
2021/09/15 11:06:06;;;;;;;14.65;13.30;;;;;;;21.21;100.00;100353.44;4975837;28;20723;-73
2021/09/15 11:08:42;;;;;;;15.18;13.73;;;;;;;21.20;100.00;100342.72;4974580;28;20185;-72
2021/09/15 11:11:34;;;;;;;15.23;13.73;;;;;;;21.16;100.00;100348.13;4993502;28;20691;-71
2021/09/15 11:14:06;;;;;;;14.45;13.10;;;;;;;21.03;100.00;100343.00;4984791;28;20186;-73
2021/09/15 11:16:38;;;;;;;14.68;13.35;;;;;;;21.08;100.00;100339.97;4993520;28;20229;-71
2021/09/15 11:19:14;;;;;;;14.77;13.45;;;;;;;20.95;100.00;100332.84;4993438;28;20274;-72
2021/09/15 11:21:46;;;;;;;16.02;14.48;;;;;;;20.84;100.00;100331.72;4993536;28;20263;-72
2021/09/15 11:24:15;;;;;;;15.68;14.07;;;;;;;20.95;100.00;100327.34;4976837;28;20228;-71
2021/09/15 11:26:43;;;;;;;17.42;15.63;;;;;;;20.94;100.00;100325.75;4991468;28;20217;-72
2021/09/15 11:29:12;;;;;;;17.40;15.68;;;;;;;20.90;100.00;100316.53;4992545;28;20269;-72
2021/09/15 11:31:41;;;;;;;17.98;16.17;;;;;;;20.84;100.00;100315.97;4987942;28;20843;-72
2021/09/15 11:34:14;;;;;;;19.20;17.20;;;;;;;20.97;100.00;100311.22;4988737;28;20630;-75
2021/09/15 11:36:40;;;;;;;17.10;15.50;;;;;;;20.97;100.00;100309.28;4973718;28;20233;-74
2021/09/15 11:39:09;;;;;;;19.20;17.40;;;;;;;20.93;100.00;100316.66;4973713;28;20182;-70